createdAt,value
2022-07-25T00:00:19.067Z,37.12
2022-07-25T00:02:45.985Z,37.27
2022-07-25T00:05:12.488Z,37.34
2022-07-25T00:07:38.957Z,36.56
2022-07-25T00:10:06.099Z,37.12
2022-07-25T00:12:32.849Z,36.91
2022-07-25T00:14:59.622Z,36.70
2022-07-25T00:17:26.124Z,36.79
2022-07-25T00:19:52.882Z,37.11
2022-07-25T00:22:19.455Z,37.00
2022-07-25T00:24:45.968Z,36.60
2022-07-25T00:27:15.034Z,36.91
2022-07-25T00:29:41.621Z,36.73
2022-07-25T00:32:08.196Z,37.30
2022-07-25T00:34:34.806Z,36.67
2022-07-25T00:37:01.489Z,36.85
2022-07-25T00:39:27.964Z,36.85
2022-07-25T00:41:54.491Z,36.55
2022-07-25T00:44:25.168Z,36.56
2022-07-25T00:46:52.463Z,36.94
2022-07-25T00:49:19.306Z,36.51
2022-07-25T00:51:46.482Z,36.24
2022-07-25T00:54:13.090Z,36.33
2022-07-25T00:56:39.966Z,36.19
2022-07-25T00:59:06.675Z,37.08
2022-07-25T01:01:33.582Z,37.44
2022-07-25T01:04:00.243Z,37.44
2022-07-25T01:06:27.380Z,37.16
2022-07-25T01:08:54.376Z,35.92
2022-07-25T01:11:22.449Z,36.19
2022-07-25T01:13:49.075Z,36.28
2022-07-25T01:16:15.806Z,36.42
2022-07-25T01:18:42.326Z,36.55
2022-07-25T01:21:09.434Z,36.53
2022-07-25T01:23:36.409Z,37.03
2022-07-25T01:26:03.918Z,36.94
2022-07-25T01:28:30.434Z,36.87
2022-07-25T01:30:57.107Z,37.01
2022-07-25T01:33:23.693Z,36.68
2022-07-25T01:35:50.763Z,36.23
2022-07-25T01:38:17.596Z,36.46
2022-07-25T01:40:44.575Z,36.59
2022-07-25T01:43:11.416Z,36.64
2022-07-25T01:45:38.109Z,36.73
2022-07-25T01:48:04.754Z,36.86
2022-07-25T01:50:31.247Z,36.48
2022-07-25T01:52:57.804Z,36.66
2022-07-25T01:55:24.311Z,35.99
2022-07-25T01:57:51.930Z,36.77
2022-07-25T02:00:19.298Z,36.28
2022-07-25T02:02:46.368Z,35.53
2022-07-25T02:05:14.424Z,35.38
2022-07-25T02:07:41.014Z,35.77
2022-07-25T02:10:08.141Z,36.03
2022-07-25T02:12:34.649Z,35.73
2022-07-25T02:15:01.186Z,35.83
2022-07-25T02:17:28.696Z,36.41
2022-07-25T02:19:55.291Z,36.43
2022-07-25T02:22:21.747Z,36.24
2022-07-25T02:24:50.224Z,36.53
2022-07-25T02:27:16.754Z,36.68
2022-07-25T02:29:43.239Z,36.07
2022-07-25T02:32:09.729Z,36.11
2022-07-25T02:34:36.304Z,36.88
2022-07-25T02:37:02.921Z,37.22
2022-07-25T02:39:29.463Z,36.91
2022-07-25T02:41:55.962Z,36.18
2022-07-25T02:44:22.441Z,36.78
2022-07-25T02:46:49.503Z,37.44
2022-07-25T02:49:16.186Z,37.52
2022-07-25T02:51:42.715Z,37.46
2022-07-25T02:54:09.423Z,37.64
2022-07-25T02:56:36.042Z,37.98
2022-07-25T02:59:02.672Z,38.86
2022-07-25T03:01:29.811Z,38.41
2022-07-25T03:03:56.443Z,38.64
2022-07-25T03:06:23.027Z,37.83
2022-07-25T03:08:49.630Z,37.78
2022-07-25T03:11:16.830Z,38.17
2022-07-25T03:13:44.234Z,38.26
2022-07-25T03:16:11.058Z,38.09
2022-07-25T03:18:37.734Z,38.46
2022-07-25T03:21:04.672Z,38.19
2022-07-25T03:23:32.152Z,38.44
2022-07-25T03:25:58.703Z,38.02
2022-07-25T03:28:25.494Z,38.30
2022-07-25T03:30:52.838Z,38.29
2022-07-25T03:33:19.485Z,38.38
2022-07-25T03:35:46.346Z,38.30
2022-07-25T03:38:12.892Z,38.79
2022-07-25T03:40:39.638Z,38.77
2022-07-25T03:43:06.239Z,38.37
2022-07-25T03:45:32.826Z,37.44
2022-07-25T03:47:59.417Z,38.21
2022-07-25T03:50:25.970Z,38.47
2022-07-25T03:52:52.538Z,38.91
2022-07-25T03:55:19.023Z,38.18
2022-07-25T03:57:45.575Z,37.94
2022-07-25T04:00:12.590Z,38.69
2022-07-25T04:02:39.455Z,38.75
2022-07-25T04:05:07.534Z,38.38
2022-07-25T04:07:34.621Z,37.88
2022-07-25T04:10:01.703Z,37.94
2022-07-25T04:12:28.699Z,38.27
2022-07-25T04:14:55.246Z,38.50
2022-07-25T04:17:21.900Z,37.88
2022-07-25T04:19:50.806Z,38.52
2022-07-25T04:22:17.391Z,38.10
2022-07-25T04:24:44.027Z,38.30
2022-07-25T04:27:10.505Z,38.06
2022-07-25T04:29:37.026Z,38.36
2022-07-25T04:32:03.831Z,37.91
2022-07-25T04:34:30.514Z,38.18
2022-07-25T04:36:57.045Z,38.23
2022-07-25T04:39:23.512Z,38.17
2022-07-25T04:41:50.001Z,38.02
2022-07-25T04:44:16.494Z,37.27
2022-07-25T04:46:43.039Z,38.11
2022-07-25T04:49:09.588Z,38.35
2022-07-25T04:51:36.142Z,38.46
2022-07-25T04:54:03.238Z,38.30
2022-07-25T04:56:30.091Z,37.77
2022-07-25T04:58:58.682Z,37.86
2022-07-25T05:01:28.478Z,36.96
2022-07-25T05:03:54.987Z,37.44
2022-07-25T05:06:21.462Z,37.81
2022-07-25T05:08:48.035Z,38.01
2022-07-25T05:11:14.580Z,38.04
2022-07-25T05:13:41.111Z,37.39
2022-07-25T05:16:07.885Z,37.76
2022-07-25T05:18:34.849Z,37.26
2022-07-25T05:21:01.578Z,37.55
2022-07-25T05:23:28.047Z,37.39
2022-07-25T05:25:55.243Z,37.26
2022-07-25T05:28:21.743Z,37.20
2022-07-25T05:30:48.196Z,37.25
2022-07-25T05:33:14.932Z,37.07
2022-07-25T05:35:41.399Z,37.06
2022-07-25T05:38:07.873Z,37.18
2022-07-25T05:40:34.391Z,37.64
2022-07-25T05:43:03.183Z,37.94
2022-07-25T05:45:30.652Z,37.08
2022-07-25T05:47:57.100Z,37.16
2022-07-25T05:50:23.667Z,37.05
2022-07-25T05:52:50.177Z,36.70
2022-07-25T05:55:17.552Z,36.34
2022-07-25T05:57:43.991Z,36.36
2022-07-25T06:00:11.352Z,35.97
2022-07-25T06:02:38.108Z,34.88
2022-07-25T06:05:05.078Z,34.05
2022-07-25T06:07:31.534Z,34.10
2022-07-25T06:09:58.067Z,33.70
2022-07-25T06:12:24.579Z,32.50
2022-07-25T06:14:51.434Z,32.15
2022-07-25T06:17:18.111Z,32.16
2022-07-25T06:19:44.598Z,32.12
2022-07-25T06:22:11.385Z,31.37
2022-07-25T06:24:38.632Z,31.86
2022-07-25T06:27:05.221Z,32.79
2022-07-25T06:29:31.711Z,32.05
2022-07-25T06:31:58.368Z,33.11
2022-07-25T06:34:28.654Z,32.79
2022-07-25T06:36:57.343Z,33.78
2022-07-25T06:39:24.660Z,32.64
2022-07-25T06:41:51.320Z,32.22
2022-07-25T06:44:17.834Z,31.55
2022-07-25T06:46:44.410Z,32.82
2022-07-25T06:49:11.121Z,32.99
2022-07-25T06:51:37.653Z,32.08
2022-07-25T06:54:04.514Z,31.34
2022-07-25T06:56:32.886Z,31.34
2022-07-25T06:59:00.293Z,31.22
2022-07-25T07:01:27.062Z,31.20
2022-07-25T07:03:53.644Z,30.66
2022-07-25T07:06:20.216Z,30.23
2022-07-25T07:08:46.848Z,31.29
2022-07-25T07:11:15.266Z,30.25
2022-07-25T07:13:41.740Z,29.60
2022-07-25T07:16:08.676Z,29.37
2022-07-25T07:18:35.332Z,29.04
2022-07-25T07:21:01.787Z,28.10
2022-07-25T07:23:29.112Z,28.14
2022-07-25T07:25:56.275Z,27.13
2022-07-25T07:28:22.896Z,26.89
2022-07-25T07:33:37.486Z,25.45
2022-07-25T07:36:04.368Z,26.20
2022-07-25T07:38:30.913Z,26.76
2022-07-25T07:40:57.402Z,26.21
2022-07-25T07:43:29.385Z,25.84
2022-07-25T07:45:59.336Z,26.33
2022-07-25T07:48:30.066Z,26.48
2022-07-25T07:50:58.273Z,25.02
2022-07-25T07:53:44.836Z,24.72
2022-07-25T07:56:12.119Z,25.04
2022-07-25T07:58:38.710Z,24.82
2022-07-25T08:01:05.531Z,24.68
2022-07-25T08:03:32.462Z,24.48
2022-07-25T08:05:59.357Z,25.14
2022-07-25T08:08:30.884Z,26.49
2022-07-25T08:10:59.057Z,24.95
2022-07-25T08:13:30.983Z,24.35
2022-07-25T08:15:59.776Z,25.56
2022-07-25T08:18:29.815Z,24.14
2022-07-25T08:20:56.692Z,24.42
2022-07-25T08:23:25.241Z,23.56
2022-07-25T08:25:52.001Z,22.73
2022-07-25T08:28:18.712Z,24.78
2022-07-25T08:30:45.268Z,24.00
2022-07-25T08:33:13.815Z,24.82
2022-07-25T08:35:41.780Z,23.99
2022-07-25T08:38:11.568Z,24.51
2022-07-25T08:40:38.567Z,23.13
2022-07-25T08:43:05.746Z,23.84
2022-07-25T08:45:33.712Z,24.09
2022-07-25T08:48:00.328Z,24.30
2022-07-25T08:50:29.221Z,22.97
2022-07-25T08:53:10.418Z,23.58
2022-07-25T08:55:45.294Z,23.28
2022-07-25T08:58:14.153Z,23.59
2022-07-25T09:00:42.062Z,24.12
2022-07-25T09:03:10.418Z,23.94
2022-07-25T09:05:37.338Z,23.57
2022-07-25T09:08:08.774Z,24.01
2022-07-25T09:10:36.845Z,24.22
2022-07-25T09:13:07.855Z,23.30
2022-07-25T09:15:39.892Z,23.60
2022-07-25T09:18:15.936Z,24.13
2022-07-25T09:20:51.946Z,24.15
2022-07-25T09:23:30.745Z,24.36
2022-07-25T09:26:06.276Z,23.98
2022-07-25T09:28:42.480Z,24.43
2022-07-25T09:31:10.118Z,23.79
2022-07-25T09:33:46.999Z,24.28
2022-07-25T09:36:14.300Z,24.84
2022-07-25T09:38:50.982Z,24.86
2022-07-25T09:41:17.545Z,24.96
2022-07-25T09:43:44.725Z,25.15
2022-07-25T09:46:12.434Z,25.05
2022-07-25T09:48:40.933Z,25.21
2022-07-25T09:51:07.658Z,24.89
2022-07-25T09:53:34.448Z,24.53
2022-07-25T09:56:01.166Z,24.27
2022-07-25T09:58:29.356Z,23.55
2022-07-25T10:01:07.114Z,23.70
2022-07-25T10:03:52.080Z,23.58
2022-07-25T10:06:25.013Z,23.38
2022-07-25T10:08:51.682Z,23.14
2022-07-25T10:11:26.638Z,23.58
2022-07-25T10:13:55.304Z,22.58
2022-07-25T10:16:24.329Z,23.50
2022-07-25T10:18:52.240Z,23.59
2022-07-25T10:21:28.283Z,24.58
2022-07-25T10:24:07.471Z,23.38
2022-07-25T10:26:42.242Z,23.16
2022-07-25T10:29:10.454Z,23.93
2022-07-25T10:31:47.691Z,23.39
2022-07-25T10:34:16.911Z,23.73
2022-07-25T10:36:54.048Z,23.35
2022-07-25T10:39:22.280Z,24.16
2022-07-25T10:42:02.808Z,23.30
2022-07-25T10:44:43.856Z,23.50
2022-07-25T10:47:12.360Z,24.02
2022-07-25T10:49:55.121Z,25.19
2022-07-25T10:52:29.018Z,24.29
2022-07-25T10:55:00.868Z,23.96
2022-07-25T10:57:32.028Z,23.84
2022-07-25T11:00:07.618Z,24.14
2022-07-25T11:02:34.139Z,24.12
2022-07-25T11:05:03.125Z,22.70
2022-07-25T11:07:35.849Z,23.32
2022-07-25T11:10:05.690Z,22.80
2022-07-25T11:12:32.596Z,23.05
2022-07-25T11:15:04.783Z,23.39
2022-07-25T11:17:31.387Z,24.34
2022-07-25T11:20:09.325Z,23.88
2022-07-25T11:22:35.930Z,24.30
2022-07-25T11:25:10.925Z,24.08
2022-07-25T11:27:37.484Z,25.04
2022-07-25T11:30:08.250Z,23.64
2022-07-25T11:32:52.098Z,23.94
2022-07-25T11:35:22.659Z,24.12
2022-07-25T11:37:50.915Z,22.94
2022-07-25T11:40:18.603Z,23.72
2022-07-25T11:42:48.311Z,23.30
2022-07-25T11:45:18.838Z,22.98
2022-07-25T11:47:48.459Z,22.40
2022-07-25T11:50:15.247Z,22.75
2022-07-25T11:52:43.507Z,22.36
2022-07-25T11:55:12.957Z,22.81
2022-07-25T11:57:44.382Z,21.59
2022-07-25T12:00:17.218Z,22.44
2022-07-25T12:02:44.303Z,21.69
2022-07-25T12:05:13.116Z,21.58
2022-07-25T12:07:46.177Z,21.14
2022-07-25T12:10:16.530Z,22.01
2022-07-25T12:12:50.489Z,22.10
2022-07-25T12:15:24.486Z,22.00
2022-07-25T12:17:53.351Z,21.48
2022-07-25T12:20:21.324Z,22.16
2022-07-25T12:22:50.056Z,22.73
2022-07-25T12:25:16.928Z,22.37
2022-07-25T12:27:43.991Z,23.69
2022-07-25T12:30:11.585Z,22.96
2022-07-25T12:32:38.741Z,22.40
2022-07-25T12:35:06.742Z,22.59
2022-07-25T12:37:33.379Z,22.41
2022-07-25T12:40:00.607Z,22.99
2022-07-25T12:42:28.868Z,23.73
2022-07-25T12:44:56.198Z,22.23
2022-07-25T12:47:23.737Z,22.05
2022-07-25T12:49:50.242Z,22.74
2022-07-25T12:52:17.037Z,23.00
2022-07-25T12:54:44.122Z,23.50
2022-07-25T12:57:12.119Z,23.38
2022-07-25T12:59:39.650Z,22.56
2022-07-25T13:02:07.116Z,23.16
2022-07-25T13:04:34.216Z,23.21
2022-07-25T13:07:01.111Z,23.20
2022-07-25T13:09:28.861Z,22.96
2022-07-25T13:11:56.633Z,23.32
2022-07-25T13:14:23.412Z,24.59
2022-07-25T13:16:51.142Z,24.29
2022-07-25T13:19:18.707Z,23.99
2022-07-25T13:21:45.336Z,24.23
2022-07-25T13:24:12.037Z,23.39
2022-07-25T13:26:39.265Z,23.81
2022-07-25T13:29:09.537Z,23.25
2022-07-25T13:31:41.197Z,23.79
2022-07-25T13:34:08.547Z,23.28
2022-07-25T13:36:36.901Z,23.12
2022-07-25T13:39:04.954Z,23.60
2022-07-25T13:41:32.118Z,24.24
2022-07-25T13:43:58.744Z,24.25
2022-07-25T13:46:25.640Z,24.25
2022-07-25T13:48:52.989Z,23.72
2022-07-25T13:51:19.552Z,23.73
2022-07-25T13:53:46.089Z,23.74
2022-07-25T13:56:13.554Z,24.14
2022-07-25T13:58:40.787Z,24.01
2022-07-25T14:01:08.217Z,24.66
2022-07-25T14:03:36.280Z,25.46
2022-07-25T14:06:08.849Z,24.40
2022-07-25T14:08:35.338Z,24.67
2022-07-25T14:11:01.997Z,24.97
2022-07-25T14:13:28.528Z,26.35
2022-07-25T14:15:55.796Z,27.28
2022-07-25T14:18:22.305Z,28.02
2022-07-25T14:20:50.070Z,27.60
2022-07-25T14:23:17.033Z,27.53
2022-07-25T14:25:43.586Z,27.26
2022-07-25T14:28:10.052Z,28.28
2022-07-25T14:30:36.657Z,28.20
2022-07-25T14:33:03.714Z,28.24
2022-07-25T14:35:32.674Z,28.65
2022-07-25T14:37:59.603Z,28.54
2022-07-25T14:40:26.303Z,28.54
2022-07-25T14:42:53.243Z,27.76
2022-07-25T14:45:21.888Z,27.83
2022-07-25T14:47:48.435Z,28.38
2022-07-25T14:50:15.055Z,27.30
2022-07-25T14:52:41.697Z,27.44
2022-07-25T14:55:09.444Z,28.56
2022-07-25T14:57:36.140Z,27.06
2022-07-25T15:00:04.882Z,27.54
2022-07-25T15:02:31.395Z,26.40
2022-07-25T15:04:58.101Z,27.79
2022-07-25T15:07:24.913Z,28.18
2022-07-25T15:09:51.571Z,27.22
2022-07-25T15:12:19.668Z,27.95
2022-07-25T15:14:46.672Z,26.57
2022-07-25T15:17:13.694Z,26.94
2022-07-25T15:19:40.216Z,26.77
2022-07-25T15:22:06.697Z,27.40
2022-07-25T15:24:49.519Z,26.54
2022-07-25T15:27:19.586Z,26.44
2022-07-25T15:29:46.086Z,26.72
2022-07-25T15:32:12.617Z,26.31
2022-07-25T15:34:39.345Z,26.77
2022-07-25T15:37:05.820Z,26.59
2022-07-25T15:39:32.318Z,28.10
2022-07-25T15:41:58.780Z,27.05
2022-07-25T15:44:25.509Z,26.90
2022-07-25T15:46:52.233Z,27.11
2022-07-25T15:49:21.523Z,27.64
2022-07-25T15:51:48.065Z,27.32
2022-07-25T15:54:14.531Z,27.83
2022-07-25T15:56:41.235Z,27.89
2022-07-25T15:59:08.238Z,27.10
2022-07-25T16:01:34.913Z,27.89
2022-07-25T16:04:01.671Z,27.28
2022-07-25T16:06:28.300Z,28.58
2022-07-25T16:08:54.864Z,28.68
2022-07-25T16:11:21.500Z,27.79
2022-07-25T16:13:47.954Z,28.20
2022-07-25T16:16:14.707Z,28.78
2022-07-25T16:18:41.355Z,28.94
2022-07-25T16:21:07.927Z,28.63
2022-07-25T16:23:38.977Z,29.38
2022-07-25T16:26:08.538Z,28.96
2022-07-25T16:28:36.794Z,29.62
2022-07-25T16:31:03.383Z,29.31
2022-07-25T16:33:29.988Z,29.44
2022-07-25T16:35:57.279Z,29.26
2022-07-25T16:38:23.982Z,28.83
2022-07-25T16:40:50.460Z,29.80
2022-07-25T16:43:16.959Z,33.04
2022-07-25T16:45:43.482Z,34.39
2022-07-25T16:48:09.962Z,36.92
2022-07-25T16:50:36.453Z,37.34
2022-07-25T16:53:02.964Z,35.64
2022-07-25T16:55:29.451Z,35.45
2022-07-25T16:57:56.139Z,36.39
2022-07-25T17:00:22.635Z,35.47
2022-07-25T17:02:49.678Z,36.82
2022-07-25T17:05:16.358Z,36.49
2022-07-25T17:07:42.917Z,37.43
2022-07-25T17:10:09.852Z,36.68
2022-07-25T17:12:36.423Z,37.21
2022-07-25T17:15:02.995Z,37.25
2022-07-25T17:17:29.546Z,37.69
2022-07-25T17:19:59.927Z,38.93
2022-07-25T17:22:26.749Z,39.85
2022-07-25T17:24:53.219Z,39.19
2022-07-25T17:27:19.764Z,41.42
2022-07-25T17:29:46.217Z,40.41
2022-07-25T17:32:12.771Z,41.32
2022-07-25T17:34:39.453Z,43.38
2022-07-25T17:37:07.339Z,42.93
2022-07-25T17:39:34.710Z,43.96
2022-07-25T17:42:01.900Z,44.42
2022-07-25T17:44:28.362Z,43.76
2022-07-25T17:46:55.322Z,43.99
2022-07-25T17:49:22.437Z,44.46
2022-07-25T17:51:49.019Z,44.58
2022-07-25T17:54:15.543Z,43.94
2022-07-25T17:56:42.247Z,43.82
2022-07-25T17:59:08.984Z,44.47
2022-07-25T18:01:35.638Z,44.17
2022-07-25T18:04:02.275Z,44.58
2022-07-25T18:06:29.996Z,45.67
2022-07-25T18:08:57.134Z,43.97
2022-07-25T18:11:23.750Z,45.62
2022-07-25T18:13:50.216Z,44.90
2022-07-25T18:16:16.916Z,44.80
2022-07-25T18:18:43.524Z,45.36
2022-07-25T18:21:10.075Z,46.67
2022-07-25T18:23:36.613Z,46.84
2022-07-25T18:26:03.826Z,45.28
2022-07-25T18:28:30.303Z,45.95
2022-07-25T18:30:56.813Z,46.52
2022-07-25T18:33:23.406Z,45.92
2022-07-25T18:35:51.393Z,46.55
2022-07-25T18:38:18.562Z,45.32
2022-07-25T18:40:45.143Z,45.47
2022-07-25T18:43:12.398Z,44.95
2022-07-25T18:45:39.093Z,45.75
2022-07-25T18:48:06.659Z,45.74
2022-07-25T18:50:33.410Z,46.06
2022-07-25T18:53:00.209Z,45.97
2022-07-25T18:55:26.864Z,46.36
2022-07-25T18:57:53.354Z,46.56
2022-07-25T19:00:20.078Z,47.85
2022-07-25T19:02:46.644Z,51.12
2022-07-25T19:05:13.549Z,50.07
2022-07-25T19:07:40.488Z,51.02
2022-07-25T19:10:07.146Z,53.30
2022-07-25T19:12:33.697Z,51.92
2022-07-25T19:15:00.193Z,54.65
2022-07-25T19:17:26.749Z,58.36
2022-07-25T19:19:53.388Z,58.09
2022-07-25T19:22:19.948Z,55.14
2022-07-25T19:24:46.463Z,55.11
2022-07-25T19:27:13.285Z,56.61
2022-07-25T19:29:41.791Z,55.47
2022-07-25T19:32:08.284Z,56.03
2022-07-25T19:34:34.752Z,57.05
2022-07-25T19:37:01.310Z,57.46
2022-07-25T19:39:27.863Z,57.20
2022-07-25T19:41:54.543Z,57.58
2022-07-25T19:44:21.007Z,58.72
2022-07-25T19:46:48.974Z,59.90
2022-07-25T19:49:15.671Z,59.11
2022-07-25T19:51:42.285Z,60.60
2022-07-25T19:54:09.801Z,59.15
2022-07-25T19:56:36.706Z,59.54
2022-07-25T19:59:03.699Z,59.28
2022-07-25T20:01:34.134Z,60.00
2022-07-25T20:04:00.880Z,58.98
2022-07-25T20:06:27.498Z,59.48
2022-07-25T20:08:53.984Z,60.23
2022-07-25T20:11:20.536Z,61.24
2022-07-25T20:13:47.122Z,62.84
2022-07-25T20:16:13.943Z,63.15
2022-07-25T20:18:40.454Z,61.53
2022-07-25T20:21:07.058Z,60.41
2022-07-25T20:23:33.579Z,60.72
2022-07-25T20:26:00.847Z,62.96
2022-07-25T20:28:27.404Z,62.14
2022-07-25T20:30:55.836Z,63.18
2022-07-25T20:33:25.167Z,61.77
2022-07-25T20:35:51.734Z,62.06
2022-07-25T20:38:18.281Z,61.77
2022-07-25T20:40:52.091Z,60.70
2022-07-25T20:43:18.947Z,60.56
2022-07-25T20:45:45.571Z,62.27
2022-07-25T20:48:14.134Z,60.82
2022-07-25T20:50:40.627Z,60.07
2022-07-25T20:53:08.133Z,59.77
2022-07-25T20:55:34.807Z,58.86
2022-07-25T20:58:02.044Z,60.27
2022-07-25T21:00:30.563Z,60.57
2022-07-25T21:02:58.375Z,59.85
2022-07-25T21:05:25.630Z,59.63
2022-07-25T21:07:52.946Z,59.02
2022-07-25T21:10:20.142Z,56.46
2022-07-25T21:12:46.610Z,59.90
2022-07-25T21:15:13.944Z,58.28
2022-07-25T21:17:41.665Z,58.09
2022-07-25T21:20:13.951Z,57.29
2022-07-25T21:22:41.119Z,56.44
2022-07-25T21:25:08.798Z,55.97
2022-07-25T21:27:36.365Z,55.01
2022-07-25T21:30:05.608Z,54.04
2022-07-25T21:32:32.334Z,53.30
2022-07-25T21:34:58.857Z,53.22
2022-07-25T21:37:25.510Z,53.34
2022-07-25T21:39:52.010Z,52.41
2022-07-25T21:42:18.728Z,53.19
2022-07-25T21:44:45.661Z,51.54
2022-07-25T21:47:12.964Z,51.56
2022-07-25T21:49:57.872Z,51.17
2022-07-25T21:52:30.365Z,51.43
2022-07-25T21:55:03.807Z,51.62
2022-07-25T21:57:30.882Z,51.77
2022-07-25T21:59:57.406Z,52.32
2022-07-25T22:02:23.964Z,51.42
2022-07-25T22:04:50.910Z,51.36
2022-07-25T22:07:17.811Z,52.79
2022-07-25T22:09:44.595Z,52.14
2022-07-25T22:12:11.236Z,51.99
2022-07-25T22:14:38.081Z,51.77
2022-07-25T22:17:05.581Z,51.86
2022-07-25T22:19:32.165Z,51.81
2022-07-25T22:21:58.672Z,50.59
2022-07-25T22:24:25.173Z,51.76
2022-07-25T22:26:51.700Z,51.69
2022-07-25T22:29:18.219Z,51.85
2022-07-25T22:31:44.733Z,51.76
2022-07-25T22:34:11.560Z,53.54
2022-07-25T22:36:38.025Z,53.27
2022-07-25T22:39:05.097Z,54.37
2022-07-25T22:41:31.859Z,52.16
2022-07-25T22:43:59.839Z,52.53
2022-07-25T22:46:29.149Z,52.50
2022-07-25T22:48:56.563Z,52.03
2022-07-25T22:51:23.696Z,51.54
2022-07-25T22:53:50.647Z,52.93
2022-07-25T22:56:17.284Z,53.73
2022-07-25T22:58:43.945Z,52.38
2022-07-25T23:01:13.340Z,53.35
2022-07-25T23:03:39.897Z,54.53
2022-07-25T23:06:06.634Z,52.48
2022-07-25T23:08:33.272Z,51.99
2022-07-25T23:10:59.764Z,51.77
2022-07-25T23:13:26.327Z,51.70
2022-07-25T23:15:52.860Z,50.85
2022-07-25T23:18:19.995Z,52.26
2022-07-25T23:20:46.916Z,51.04
2022-07-25T23:23:13.638Z,51.10
2022-07-25T23:25:40.162Z,51.02
2022-07-25T23:28:06.661Z,50.86
2022-07-25T23:30:36.717Z,51.99
2022-07-25T23:33:07.098Z,51.33
2022-07-25T23:35:33.723Z,51.99
2022-07-25T23:38:01.189Z,50.95
2022-07-25T23:40:27.663Z,52.39
2022-07-25T23:42:54.491Z,51.39
2022-07-25T23:45:21.758Z,51.92
2022-07-25T23:47:50.818Z,51.48
2022-07-25T23:50:18.290Z,51.85
2022-07-25T23:52:44.799Z,52.73
2022-07-25T23:55:11.455Z,51.68
2022-07-25T23:57:37.942Z,51.84
